Time;durP1;ratioP1;P1;durP2;ratioP2;P2;SDS_P1;SDS_P2;PMS_P1;PMS_P2;Temp;Humidity;BMP_temperature;BMP_pressure;BME280_temperature;BME280_humidity;BME280_pressure;Samples;Min_cycle;Max_cycle;Signal;HPM_P1;HPM_P2
2022/12/15 00:39:58;;;;;;;;;;;;;;;;;;4996914;28;19914;-80
2022/12/15 00:42:23;;;;;;;;;;;;;;;;;;4981334;28;19913;-81
2022/12/15 00:44:49;;;;;;;;;;;;;;;;;;4997428;28;19937;-79
2022/12/15 00:47:15;;;;;;;;;;;;;;;;;;4998334;28;19921;-79
2022/12/15 01:22:29;;;;;;;;;;;;;;;;;;4999941;28;19914;-80
2022/12/15 01:24:55;;;;;;;;;;;;;;;;;;4999724;28;20373;-81
2022/12/15 01:27:20;;;;;;;;;;;;;;;;;;5000945;28;20014;-80
2022/12/15 01:29:45;;;;;;;;;;;;;;;;;;5017793;28;19918;-81
2022/12/15 01:32:11;;;;;;;;;;;;;;;;;;5020385;28;19917;-81
2022/12/15 01:34:36;;;;;;;;;;;;;;;;;;5021888;28;19993;-80
2022/12/15 01:37:01;;;;;;;;;;;;;;;;;;5021432;28;19920;-81
2022/12/15 01:40:43;;;;;;;;;;;;;;;;;;5021602;28;19913;-80
2022/12/15 01:42:15;;;;;;;;;;;;;;;;;;5022053;28;20292;-81
2022/12/15 01:44:41;;;;;;;;;;;;;;;;;;5021003;28;19914;-81
2022/12/15 01:47:06;;;;;;;;;;;;;;;;;;5026066;28;19913;-81
2022/12/15 01:49:32;;;;;;;;;;;;;;;;;;5026216;28;20300;-81
2022/12/15 01:51:57;;;;;;;;;;;;;;;;;;5021005;28;20312;-82
2022/12/15 01:54:22;;;;;;;;;;;;;;;;;;5027975;28;19940;-82
2022/12/15 01:56:48;;;;;;;;;;;;;;;;;;5043466;28;19959;-81
2022/12/15 01:59:14;;;;;;;;;;;;;;;;;;5044687;28;20427;-82
2022/12/15 02:01:39;;;;;;;;;;;;;;;;;;5027208;28;20287;-82
2022/12/15 02:04:08;;;;;;;;;;;;;;;;;;5027354;28;19913;-81
2022/12/15 02:06:34;;;;;;;;;;;;;;;;;;5025777;28;19988;-81
2022/12/15 02:08:59;;;;;;;;;;;;;;;;;;5025909;28;19997;-82
2022/12/15 02:11:24;;;;;;;;;;;;;;;;;;5027344;28;19917;-82
2022/12/15 02:13:50;;;;;;;;;;;;;;;;;;5025646;28;19963;-82
2022/12/15 02:16:15;;;;;;;;;;;;;;;;;;5025310;28;19952;-83
2022/12/15 02:18:41;;;;;;;;;;;;;;;;;;5025313;28;20000;-82
2022/12/15 02:21:06;;;;;;;;;;;;;;;;;;5021425;28;20160;-81
2022/12/15 02:23:31;;;;;;;;;;;;;;;;;;5008014;28;19936;-82
2022/12/15 02:25:57;;;;;;;;;;;;;;;;;;5009787;28;19909;-81
2022/12/15 02:28:22;;;;;;;;;;;;;;;;;;5024179;28;19921;-82
2022/12/15 02:33:32;;;;;;;;;;;;;;;;;;5023510;28;19920;-81
2022/12/15 02:35:57;;;;;;;;;;;;;;;;;;5038120;23;20004;-77
2022/12/15 02:38:23;;;;;;;;;;;;;;;;;;5063292;28;20307;-76
2022/12/15 02:40:48;;;;;;;;;;;;;;;;;;5013171;28;19913;-76
2022/12/15 02:43:14;;;;;;;;;;;;;;;;;;5047479;28;19909;-77
2022/12/15 02:45:39;;;;;;;;;;;;;;;;;;5028717;28;19921;-77
2022/12/15 02:48:05;;;;;;;;;;;;;;;;;;5029244;28;19913;-77
2022/12/15 02:50:30;;;;;;;;;;;;;;;;;;5046352;28;19980;-77
2022/12/15 02:52:55;;;;;;;;;;;;;;;;;;5037459;28;19960;-77
2022/12/15 02:55:21;;;;;;;;;;;;;;;;;;5047813;28;19917;-78
2022/12/15 02:57:46;;;;;;;;;;;;;;;;;;5062797;28;19913;-77
2022/12/15 03:00:12;;;;;;;;;;;;;;;;;;5046341;28;19932;-78
2022/12/15 03:02:38;;;;;;;;;;;;;;;;;;5046325;28;19943;-77
2022/12/15 03:05:03;;;;;;;;;;;;;;;;;;5047477;28;19967;-78
2022/12/15 03:07:28;;;;;;;;;;;;;;;;;;5046064;28;19909;-77
2022/12/15 03:09:54;;;;;;;;;;;;;;;;;;5049371;28;20417;-78
2022/12/15 03:12:22;;;;;;;;;;;;;;;;;;5067293;28;19920;-77
2022/12/15 03:14:48;;;;;;;;;;;;;;;;;;5065559;28;19913;-77
2022/12/15 03:17:13;;;;;;;;;;;;;;;;;;5048576;28;19919;-78
2022/12/15 03:19:39;;;;;;;;;;;;;;;;;;5064018;28;19916;-77
2022/12/15 03:22:04;;;;;;;;;;;;;;;;;;5058122;28;19912;-76
2022/12/15 03:24:30;;;;;;;;;;;;;;;;;;5057982;28;20403;-77
2022/12/15 03:26:55;;;;;;;;;;;;;;;;;;5059049;28;19919;-77
2022/12/15 03:29:21;;;;;;;;;;;;;;;;;;5042742;28;19924;-78
2022/12/15 03:31:47;;;;;;;;;;;;;;;;;;5022567;28;19929;-77
2022/12/15 03:34:13;;;;;;;;;;;;;;;;;;5005489;28;20273;-77
2022/12/15 03:36:38;;;;;;;;;;;;;;;;;;5040072;28;19940;-77
2022/12/15 03:39:04;;;;;;;;;;;;;;;;;;5039488;28;19920;-76
2022/12/15 03:41:29;;;;;;;;;;;;;;;;;;5005780;28;19920;-77
2022/12/15 03:43:55;;;;;;;;;;;;;;;;;;5041994;28;20016;-77
2022/12/15 03:46:21;;;;;;;;;;;;;;;;;;5052360;28;19959;-77
2022/12/15 03:48:46;;;;;;;;;;;;;;;;;;5037013;28;19914;-77
2022/12/15 03:51:11;;;;;;;;;;;;;;;;;;5038873;28;19917;-78
2022/12/15 03:53:37;;;;;;;;;;;;;;;;;;5036819;28;19999;-77
2022/12/15 03:56:03;;;;;;;;;;;;;;;;;;5058735;28;19920;-77
2022/12/15 03:58:29;;;;;;;;;;;;;;;;;;5076562;28;19957;-77
2022/12/15 04:00:54;;;;;;;;;;;;;;;;;;5075166;28;19999;-77
2022/12/15 04:03:20;;;;;;;;;;;;;;;;;;5076334;28;19965;-77
2022/12/15 04:05:46;;;;;;;;;;;;;;;;;;5060574;28;19922;-77
2022/12/15 04:08:11;;;;;;;;;;;;;;;;;;5079313;28;19912;-77
2022/12/15 04:10:37;;;;;;;;;;;;;;;;;;5077876;28;20008;-78
2022/12/15 04:13:03;;;;;;;;;;;;;;;;;;5063809;28;19924;-78
2022/12/15 04:15:29;;;;;;;;;;;;;;;;;;5066131;28;19934;-77
2022/12/15 04:17:54;;;;;;;;;;;;;;;;;;5058435;28;19963;-77
2022/12/15 04:20:20;;;;;;;;;;;;;;;;;;5041866;28;19917;-77
2022/12/15 04:22:46;;;;;;;;;;;;;;;;;;5024444;28;19913;-77
2022/12/15 05:34:10;;;;;;;;;;;;;;;;;;5077533;28;20153;-78
2022/12/15 05:36:39;;;;;;;;;;;;;;;;;;5064878;28;19900;-77
2022/12/15 05:39:13;;;;;;;;;;;;;;;;;;5068002;28;19939;-78
2022/12/15 05:41:43;;;;;;;;;;;;;;;;;;5099521;28;19904;-78
2022/12/15 05:44:18;;;;;;;;;;;;;;;;;;5077657;28;19904;-78
2022/12/15 05:46:44;;;;;;;;;;;;;;;;;;5094516;28;19912;-78
2022/12/15 05:49:16;;;;;;;;;;;;;;;;;;5092720;28;19915;-77
2022/12/15 05:51:48;;;;;;;;;;;;;;;;;;5093173;28;19938;-78
2022/12/15 05:54:16;;;;;;;;;;;;;;;;;;5094198;28;19919;-78
2022/12/15 05:56:53;;;;;;;;;;;;;;;;;;5095968;28;19916;-78
2022/12/15 05:59:19;;;;;;;;;;;;;;;;;;5096201;28;19912;-78
2022/12/15 06:01:54;;;;;;;;;;;;;;;;;;5062994;28;19912;-79
2022/12/15 06:04:23;;;;;;;;;;;;;;;;;;5059880;28;19920;-79
2022/12/15 06:06:55;;;;;;;;;;;;;;;;;;5076396;28;19908;-79
2022/12/15 06:09:25;;;;;;;;;;;;;;;;;;5064549;28;19972;-78
2022/12/15 06:14:30;;;;;;;;;;;;;;;;;;5348592;22;19923;-79
2022/12/15 06:30:40;;;;;;;;;;;;;;;;;;5075199;22;19957;-78
2022/12/15 06:35:48;;;;;;;;;;;;;;;;;;5612915;22;19921;-80
2022/12/15 06:38:20;;;;;;;;;;;;;;;;;;5043064;28;19917;-79
2022/12/15 06:40:48;;;;;;;;;;;;;;;;;;5041121;28;19913;-79
2022/12/15 06:43:30;;;;;;;;;;;;;;;;;;5057766;28;19920;-79
2022/12/15 06:49:18;;;;;;;;;;;;;;;;;;5057551;28;20003;-78
2022/12/15 06:51:56;;;;;;;;;;;;;;;;;;5057856;28;19960;-80
2022/12/15 06:54:27;;;;;;;;;;;;;;;;;;5058872;28;19917;-79
2022/12/15 06:56:56;;;;;;;;;;;;;;;;;;5041567;28;19913;-80
2022/12/15 06:59:26;;;;;;;;;;;;;;;;;;5024722;28;19936;-79
2022/12/15 07:01:53;;;;;;;;;;;;;;;;;;5040908;28;19935;-79
2022/12/15 07:04:25;;;;;;;;;;;;;;;;;;5055941;28;19897;-78
2022/12/15 07:07:00;;;;;;;;;;;;;;;;;;5040986;28;19935;-77
2022/12/15 07:09:35;;;;;;;;;;;;;;;;;;5041584;28;19902;-78
2022/12/15 07:12:07;;;;;;;;;;;;;;;;;;5006433;28;19918;-78
2022/12/15 07:14:39;;;;;;;;;;;;;;;;;;5038658;28;19924;-78
2022/12/15 07:17:12;;;;;;;;;;;;;;;;;;5038715;28;19936;-78
2022/12/15 07:19:41;;;;;;;;;;;;;;;;;;5038840;28;19972;-79
2022/12/15 07:22:17;;;;;;;;;;;;;;;;;;5021434;28;19909;-77
2022/12/15 07:24:55;;;;;;;;;;;;;;;;;;5037916;28;19985;-78
2022/12/15 07:27:32;;;;;;;;;;;;;;;;;;5021155;28;19901;-77
2022/12/15 07:30:16;;;;;;;;;;;;;;;;;;5021972;28;19936;-80
2022/12/15 07:32:48;;;;;;;;;;;;;;;;;;5004098;28;19905;-78
2022/12/15 07:35:28;;;;;;;;;;;;;;;;;;5020592;28;20615;-78
2022/12/15 07:37:54;;;;;;;;;;;;;;;;;;4988921;28;20376;-80
2022/12/15 07:40:20;;;;;;;;;;;;;;;;;;4985929;28;19917;-79
2022/12/15 07:42:45;;;;;;;;;;;;;;;;;;5001428;28;19920;-74
2022/12/15 07:45:13;;;;;;;;;;;;;;;;;;5032345;28;19924;-76
2022/12/15 07:47:38;;;;;;;;;;;;;;;;;;5033894;28;19909;-74
2022/12/15 07:50:04;;;;;;;;;;;;;;;;;;5032956;28;19913;-74
2022/12/15 07:52:30;;;;;;;;;;;;;;;;;;5016173;28;19960;-74
2022/12/15 07:54:55;;;;;;;;;;;;;;;;;;5042531;28;19966;-75
2022/12/15 07:57:21;;;;;;;;;;;;;;;;;;5052865;28;19917;-74
2022/12/15 07:59:46;;;;;;;;;;;;;;;;;;5017335;28;19995;-73
2022/12/15 08:02:12;;;;;;;;;;;;;;;;;;5032884;28;19948;-74
2022/12/15 08:04:38;;;;;;;;;;;;;;;;;;5015722;28;19913;-73
2022/12/15 08:07:04;;;;;;;;;;;;;;;;;;5032463;28;19951;-75
2022/12/15 08:09:33;;;;;;;;;;;;;;;;;;5000236;28;19913;-73
2022/12/15 08:11:59;;;;;;;;;;;;;;;;;;5017661;28;19921;-73
2022/12/15 08:14:27;;;;;;;;;;;;;;;;;;5020141;28;20051;-74
2022/12/15 08:16:53;;;;;;;;;;;;;;;;;;5035441;28;19913;-75
2022/12/15 08:19:21;;;;;;;;;;;;;;;;;;5019955;28;19913;-75
2022/12/15 08:21:47;;;;;;;;;;;;;;;;;;5036280;28;19913;-73
2022/12/15 08:24:13;;;;;;;;;;;;;;;;;;5041225;28;19913;-78
2022/12/15 08:26:39;;;;;;;;;;;;;;;;;;5026724;28;19913;-79
2022/12/15 08:29:05;;;;;;;;;;;;;;;;;;5025439;28;19914;-79
2022/12/15 08:31:31;;;;;;;;;;;;;;;;;;5032121;28;19924;-78
2022/12/15 08:33:57;;;;;;;;;;;;;;;;;;5026186;28;19913;-77
2022/12/15 08:36:23;;;;;;;;;;;;;;;;;;5053562;23;19932;-80
2022/12/15 08:38:48;;;;;;;;;;;;;;;;;;5083083;28;19982;-80
2022/12/15 08:41:14;;;;;;;;;;;;;;;;;;5071314;28;19944;-78
2022/12/15 08:43:40;;;;;;;;;;;;;;;;;;5074974;28;19949;-80
2022/12/15 08:46:06;;;;;;;;;;;;;;;;;;5041544;28;20270;-80
2022/12/15 08:48:32;;;;;;;;;;;;;;;;;;5056134;28;19924;-80
2022/12/15 08:50:58;;;;;;;;;;;;;;;;;;5049617;28;19913;-81
2022/12/15 08:53:23;;;;;;;;;;;;;;;;;;5033322;28;20323;-80
2022/12/15 08:55:48;;;;;;;;;;;;;;;;;;5065942;28;19920;-80
2022/12/15 08:58:14;;;;;;;;;;;;;;;;;;5048987;28;19980;-79
2022/12/15 09:00:40;;;;;;;;;;;;;;;;;;5037527;28;19955;-78
2022/12/15 09:03:06;;;;;;;;;;;;;;;;;;5029217;28;19913;-78
2022/12/15 09:05:31;;;;;;;;;;;;;;;;;;5037524;28;19917;-79
2022/12/15 09:07:58;;;;;;;;;;;;;;;;;;5043085;28;20397;-79
2022/12/15 09:10:23;;;;;;;;;;;;;;;;;;5015476;28;19913;-79
2022/12/15 09:12:49;;;;;;;;;;;;;;;;;;5022623;28;19988;-80
2022/12/15 09:15:14;;;;;;;;;;;;;;;;;;5013976;28;19956;-81
2022/12/15 09:17:40;;;;;;;;;;;;;;;;;;5020122;28;19914;-78
2022/12/15 09:20:07;;;;;;;;;;;;;;;;;;5022967;28;20315;-80
2022/12/15 09:22:33;;;;;;;;;;;;;;;;;;5030259;28;19920;-80
2022/12/15 09:24:59;;;;;;;;;;;;;;;;;;5053940;28;19968;-79
2022/12/15 09:27:24;;;;;;;;;;;;;;;;;;5021730;28;19912;-80
2022/12/15 09:29:50;;;;;;;;;;;;;;;;;;5031670;28;19914;-80
2022/12/15 09:32:16;;;;;;;;;;;;;;;;;;5036325;28;19916;-81
2022/12/15 09:34:42;;;;;;;;;;;;;;;;;;5061858;28;19916;-80
2022/12/15 09:37:07;;;;;;;;;;;;;;;;;;5062511;28;20003;-80
2022/12/15 09:39:33;;;;;;;;;;;;;;;;;;5045651;28;19913;-79
2022/12/15 09:41:58;;;;;;;;;;;;;;;;;;5063013;28;19913;-80
2022/12/15 09:44:24;;;;;;;;;;;;;;;;;;5029388;28;19913;-80
2022/12/15 09:46:50;;;;;;;;;;;;;;;;;;5040572;28;19931;-80
2022/12/15 09:49:15;;;;;;;;;;;;;;;;;;5060032;28;19920;-80
2022/12/15 09:51:40;;;;;;;;;;;;;;;;;;5015005;28;19943;-79
2022/12/15 09:54:06;;;;;;;;;;;;;;;;;;5053099;28;20380;-80
2022/12/15 09:56:32;;;;;;;;;;;;;;;;;;5055686;28;19916;-78
2022/12/15 09:58:57;;;;;;;;;;;;;;;;;;5046252;28;19920;-80
2022/12/15 10:01:23;;;;;;;;;;;;;;;;;;5062269;28;20383;-81
2022/12/15 10:03:48;;;;;;;;;;;;;;;;;;5058736;28;19917;-78
2022/12/15 10:06:14;;;;;;;;;;;;;;;;;;5020625;28;19913;-77
2022/12/15 10:08:39;;;;;;;;;;;;;;;;;;5037697;28;19909;-77
2022/12/15 10:11:05;;;;;;;;;;;;;;;;;;5032333;28;19914;-77
2022/12/15 10:13:33;;;;;;;;;;;;;;;;;;5018089;28;20003;-78
2022/12/15 10:15:59;;;;;;;;;;;;;;;;;;5031748;28;19978;-77
2022/12/15 10:18:24;;;;;;;;;;;;;;;;;;5048817;28;19913;-79
2022/12/15 10:20:50;;;;;;;;;;;;;;;;;;5046768;28;19915;-78
2022/12/15 10:23:16;;;;;;;;;;;;;;;;;;5043262;28;20002;-79
2022/12/15 10:25:41;;;;;;;;;;;;;;;;;;5039347;28;20253;-78
2022/12/15 10:28:07;;;;;;;;;;;;;;;;;;5028962;28;19913;-80
2022/12/15 10:30:33;;;;;;;;;;;;;;;;;;5021689;28;19913;-78
2022/12/15 10:32:58;;;;;;;;;;;;;;;;;;5055190;28;20277;-79
2022/12/15 10:35:26;;;;;;;;;;;;;;;;;;5062906;28;19912;-80
2022/12/15 10:37:52;;;;;;;;;;;;;;;;;;5042468;28;20404;-80
2022/12/15 10:40:17;;;;;;;;;;;;;;;;;;5048455;28;19923;-79
2022/12/15 10:42:43;;;;;;;;;;;;;;;;;;5053216;28;19999;-80
2022/12/15 10:45:09;;;;;;;;;;;;;;;;;;5038067;28;19913;-80
2022/12/15 10:47:35;;;;;;;;;;;;;;;;;;5024013;28;19910;-80
2022/12/15 10:50:01;;;;;;;;;;;;;;;;;;5035338;28;19973;-81
2022/12/15 10:52:29;;;;;;;;;;;;;;;;;;5002185;28;19940;-80
2022/12/15 10:54:55;;;;;;;;;;;;;;;;;;5002718;28;19913;-81
2022/12/15 10:57:21;;;;;;;;;;;;;;;;;;5035078;28;19916;-81
2022/12/15 10:59:47;;;;;;;;;;;;;;;;;;5021242;28;19913;-81
2022/12/15 11:02:14;;;;;;;;;;;;;;;;;;5021702;28;19958;-79
2022/12/15 11:04:40;;;;;;;;;;;;;;;;;;5049427;28;20394;-79
2022/12/15 11:07:06;;;;;;;;;;;;;;;;;;5048453;28;19913;-80
2022/12/15 11:09:32;;;;;;;;;;;;;;;;;;5029484;28;19913;-80
2022/12/15 11:14:43;;;;;;;;;;;;;;;;;;5055667;28;19936;-80
2022/12/15 11:17:09;;;;;;;;;;;;;;;;;;5011562;28;19909;-81
2022/12/15 11:19:35;;;;;;;;;;;;;;;;;;5040521;28;19913;-78
2022/12/15 11:22:02;;;;;;;;;;;;;;;;;;5039930;28;19952;-77
2022/12/15 11:24:28;;;;;;;;;;;;;;;;;;5043587;28;19913;-77
2022/12/15 11:26:53;;;;;;;;;;;;;;;;;;5021056;28;19936;-77
2022/12/15 11:29:19;;;;;;;;;;;;;;;;;;5019239;28;19952;-78
2022/12/15 11:31:46;;;;;;;;;;;;;;;;;;5049346;28;19916;-76
2022/12/15 11:34:11;;;;;;;;;;;;;;;;;;5022813;28;19923;-76
2022/12/15 11:36:37;;;;;;;;;;;;;;;;;;5028061;28;19917;-77
2022/12/15 11:39:03;;;;;;;;;;;;;;;;;;5029882;28;19931;-77
2022/12/15 11:41:28;;;;;;;;;;;;;;;;;;5020969;28;19917;-76
2022/12/15 11:43:56;;;;;;;;;;;;;;;;;;5026253;28;19916;-81
2022/12/15 11:46:23;;;;;;;;;;;;;;;;;;5011278;28;19914;-82
2022/12/15 11:48:49;;;;;;;;;;;;;;;;;;5048414;28;19913;-82
2022/12/15 11:51:24;;;;;;;;;;;;;;;;;;5015857;28;19913;-82
2022/12/15 11:53:53;;;;;;;;;;;;;;;;;;5015656;28;19913;-83
2022/12/15 11:56:20;;;;;;;;;;;;;;;;;;5014489;28;19913;-82
2022/12/15 11:58:46;;;;;;;;;;;;;;;;;;5043015;28;19920;-82
2022/12/15 12:01:15;;;;;;;;;;;;;;;;;;5033485;28;19920;-82
2022/12/15 12:03:41;;;;;;;;;;;;;;;;;;5053592;28;19912;-82
2022/12/15 12:06:07;;;;;;;;;;;;;;;;;;5073140;28;19909;-83
2022/12/15 12:08:38;;;;;;;;;;;;;;;;;;5042707;28;19897;-83
2022/12/15 12:13:55;;;;;;;;;;;;;;;;;;5027612;28;19913;-81
2022/12/15 12:16:29;;;;;;;;;;;;;;;;;;5012045;28;19980;-81
2022/12/15 12:18:58;;;;;;;;;;;;;;;;;;5028310;28;19914;-82
2022/12/15 12:21:25;;;;;;;;;;;;;;;;;;5040778;28;19913;-80
2022/12/15 12:23:52;;;;;;;;;;;;;;;;;;5018844;28;19924;-82
2022/12/15 12:26:21;;;;;;;;;;;;;;;;;;4999291;28;19992;-81
2022/12/15 12:28:47;;;;;;;;;;;;;;;;;;5007965;28;19920;-81
2022/12/15 12:31:13;;;;;;;;;;;;;;;;;;5034945;28;19913;-81
2022/12/15 12:33:39;;;;;;;;;;;;;;;;;;5013724;28;20388;-80
2022/12/15 12:36:06;;;;;;;;;;;;;;;;;;5031361;28;19913;-82
2022/12/15 12:38:32;;;;;;;;;;;;;;;;;;5016154;28;19917;-84
2022/12/15 12:40:58;;;;;;;;;;;;;;;;;;5036224;28;19972;-83
2022/12/15 12:43:26;;;;;;;;;;;;;;;;;;5031945;28;20169;-82
2022/12/15 12:45:54;;;;;;;;;;;;;;;;;;5034862;28;19901;-82
2022/12/15 12:48:23;;;;;;;;;;;;;;;;;;5036257;28;19920;-81
2022/12/15 12:51:01;;;;;;;;;;;;;;;;;;5033657;28;19976;-82
2022/12/15 12:53:30;;;;;;;;;;;;;;;;;;5026239;28;19918;-82
2022/12/15 12:55:56;;;;;;;;;;;;;;;;;;5013789;28;19969;-83
2022/12/15 12:58:25;;;;;;;;;;;;;;;;;;5020108;28;19898;-82
2022/12/15 13:00:55;;;;;;;;;;;;;;;;;;5007237;28;19925;-82
2022/12/15 13:03:23;;;;;;;;;;;;;;;;;;5021028;28;19920;-82
2022/12/15 13:06:05;;;;;;;;;;;;;;;;;;5037517;28;19984;-84
2022/12/15 13:08:47;;;;;;;;;;;;;;;;;;5008270;28;19997;-80
2022/12/15 13:11:17;;;;;;;;;;;;;;;;;;5008417;28;19922;-81
2022/12/15 13:13:48;;;;;;;;;;;;;;;;;;5038316;28;19913;-82
2022/12/15 13:16:31;;;;;;;;;;;;;;;;;;5044110;28;19901;-81
2022/12/15 13:19:01;;;;;;;;;;;;;;;;;;5043441;28;19916;-81
2022/12/15 13:21:34;;;;;;;;;;;;;;;;;;5027435;28;19953;-81
2022/12/15 13:24:11;;;;;;;;;;;;;;;;;;5016875;28;20391;-81
2022/12/15 13:27:18;;;;;;;;;;;;;;;;;;5058586;23;19926;-84
2022/12/15 13:30:07;;;;;;;;;;;;;;;;;;5023815;28;19914;-83
2022/12/15 13:32:33;;;;;;;;;;;;;;;;;;5023988;28;19917;-82
2022/12/15 13:35:03;;;;;;;;;;;;;;;;;;5046439;28;19913;-84
2022/12/15 13:37:38;;;;;;;;;;;;;;;;;;5015200;28;20342;-83
2022/12/15 13:40:20;;;;;;;;;;;;;;;;;;5015293;28;19982;-83
2022/12/15 13:43:08;;;;;;;;;;;;;;;;;;5001347;28;19914;-83
2022/12/15 13:45:38;;;;;;;;;;;;;;;;;;5000602;28;19920;-83
2022/12/15 13:48:18;;;;;;;;;;;;;;;;;;4985853;28;19913;-83
2022/12/15 13:50:47;;;;;;;;;;;;;;;;;;4984442;28;19921;-84
2022/12/15 13:53:16;;;;;;;;;;;;;;;;;;5011798;28;19898;-83
2022/12/15 13:55:47;;;;;;;;;;;;;;;;;;5003122;28;19921;-81
2022/12/15 13:58:15;;;;;;;;;;;;;;;;;;5017654;28;19914;-83
2022/12/15 14:00:52;;;;;;;;;;;;;;;;;;4990901;28;19910;-84
2022/12/15 14:03:30;;;;;;;;;;;;;;;;;;5021714;28;19913;-83
2022/12/15 14:06:09;;;;;;;;;;;;;;;;;;5021235;28;19913;-84
2022/12/15 14:08:46;;;;;;;;;;;;;;;;;;5005132;28;19913;-82
2022/12/15 14:11:13;;;;;;;;;;;;;;;;;;5020661;28;19902;-84
2022/12/15 14:14:09;;;;;;;;;;;;;;;;;;5024728;28;19944;-84
2022/12/15 14:16:38;;;;;;;;;;;;;;;;;;5002940;28;19968;-85
2022/12/15 14:19:04;;;;;;;;;;;;;;;;;;5019091;28;19936;-84
2022/12/15 14:21:34;;;;;;;;;;;;;;;;;;5019968;28;19925;-83
2022/12/15 14:24:17;;;;;;;;;;;;;;;;;;5008314;28;19920;-82
2022/12/15 14:26:47;;;;;;;;;;;;;;;;;;5035700;28;19926;-84
2022/12/15 14:29:20;;;;;;;;;;;;;;;;;;5005443;28;19937;-84
2022/12/15 14:31:59;;;;;;;;;;;;;;;;;;4999156;28;19921;-83
2022/12/15 14:34:26;;;;;;;;;;;;;;;;;;4995858;28;19914;-82
2022/12/15 14:48:03;;;;;;;;;;;;;;;;;;;;;
2022/12/15 14:53:11;;;;;;;;;;;;;;;;;;5627508;22;19924;-86
2022/12/15 15:03:47;;;;;;;;;;;;;;;;;;5255275;22;19925;-86
2022/12/15 15:06:17;;;;;;;;;;;;;;;;;;5019742;28;19937;-85
2022/12/15 15:08:54;;;;;;;;;;;;;;;;;;5021339;28;19914;-86
2022/12/15 15:11:46;;;;;;;;;;;;;;;;;;5023130;28;19917;-86
2022/12/15 15:14:46;;;;;;;;;;;;;;;;;;5022272;28;19925;-85
2022/12/15 15:17:21;;;;;;;;;;;;;;;;;;;;;
2022/12/15 15:19:49;;;;;;;;;;;;;;;;;;5035987;28;19949;-84
2022/12/15 15:22:15;;;;;;;;;;;;;;;;;;5005476;28;19902;-85
2022/12/15 15:24:43;;;;;;;;;;;;;;;;;;5039117;28;19924;-84
2022/12/15 15:27:19;;;;;;;;;;;;;;;;;;5022472;28;19902;-85
2022/12/15 15:29:47;;;;;;;;;;;;;;;;;;5038461;28;19913;-84
2022/12/15 15:32:22;;;;;;;;;;;;;;;;;;5021452;28;19925;-84
2022/12/15 15:42:58;;;;;;;;;;;;;;;;;;5342128;22;19913;-86
2022/12/15 15:45:26;;;;;;;;;;;;;;;;;;5493509;22;19913;-85
2022/12/15 15:48:13;;;;;;;;;;;;;;;;;;5056004;28;19932;-83
2022/12/15 15:51:05;;;;;;;;;;;;;;;;;;5057196;28;19912;-83
2022/12/15 15:53:38;;;;;;;;;;;;;;;;;;5023986;28;19909;-83
2022/12/15 15:58:57;;;;;;;;;;;;;;;;;;5701913;22;19931;-85
2022/12/15 16:01:37;;;;;;;;;;;;;;;;;;5026135;28;19909;-85
2022/12/15 16:12:37;;;;;;;;;;;;;;;;;;5966601;22;19951;-83
2022/12/15 16:23:22;;;;;;;;;;;;;;;;;;5066211;22;19909;-86
2022/12/15 16:28:49;;;;;;;;;;;;;;;;;;5095588;22;20719;-84
2022/12/15 16:31:15;;;;;;;;;;;;;;;;;;5024414;28;19901;-83
2022/12/15 16:33:44;;;;;;;;;;;;;;;;;;5164151;22;19921;-85
2022/12/15 16:36:12;;;;;;;;;;;;;;;;;;5082107;28;19925;-85
2022/12/15 16:38:54;;;;;;;;;;;;;;;;;;5629709;22;20107;-83
2022/12/15 16:41:22;;;;;;;;;;;;;;;;;;5028594;28;19951;-83
2022/12/15 16:43:53;;;;;;;;;;;;;;;;;;5135002;22;19928;-83
2022/12/15 16:46:27;;;;;;;;;;;;;;;;;;5025045;28;19978;-85
2022/12/15 16:48:56;;;;;;;;;;;;;;;;;;5117544;23;19936;-86
2022/12/15 16:51:21;;;;;;;;;;;;;;;;;;5040927;28;19901;-85
2022/12/15 16:53:47;;;;;;;;;;;;;;;;;;5050757;28;19922;-84
2022/12/15 16:56:13;;;;;;;;;;;;;;;;;;5018318;28;19905;-84
2022/12/15 16:58:45;;;;;;;;;;;;;;;;;;5034006;28;19964;-84
2022/12/15 17:01:14;;;;;;;;;;;;;;;;;;5020962;28;19901;-84
2022/12/15 17:03:47;;;;;;;;;;;;;;;;;;5816974;22;19924;-82
2022/12/15 17:06:16;;;;;;;;;;;;;;;;;;5355185;22;20368;-84
2022/12/15 17:08:44;;;;;;;;;;;;;;;;;;5061407;28;19964;-85
2022/12/15 17:11:22;;;;;;;;;;;;;;;;;;5452117;22;19917;-84
2022/12/15 17:13:50;;;;;;;;;;;;;;;;;;5041625;28;19901;-85
2022/12/15 17:24:15;;;;;;;;;;;;;;;;;;5452600;22;19940;-84
2022/12/15 17:29:25;;;;;;;;;;;;;;;;;;5681968;22;19909;-86
2022/12/15 17:53:27;;;;;;;;;;;;;;;;;;6024625;22;19920;-84
2022/12/15 17:58:35;;;;;;;;;;;;;;;;;;5644672;22;19948;-83
2022/12/15 18:03:42;;;;;;;;;;;;;;;;;;5588088;22;19909;-85
2022/12/15 18:06:10;;;;;;;;;;;;;;;;;;5128504;22;19925;-84
2022/12/15 18:08:36;;;;;;;;;;;;;;;;;;5060548;28;19928;-85
2022/12/15 18:11:02;;;;;;;;;;;;;;;;;;5043674;28;19901;-85
2022/12/15 18:16:09;;;;;;;;;;;;;;;;;;5892352;22;19924;-84
2022/12/15 18:21:18;;;;;;;;;;;;;;;;;;5930904;22;19966;-84
2022/12/15 18:23:44;;;;;;;;;;;;;;;;;;5815296;22;21301;-81
2022/12/15 18:26:10;;;;;;;;;;;;;;;;;;5093066;23;19910;-82
2022/12/15 18:28:42;;;;;;;;;;;;;;;;;;5141982;22;19909;-83
2022/12/15 18:33:50;;;;;;;;;;;;;;;;;;5557582;22;19921;-84
2022/12/15 18:36:24;;;;;;;;;;;;;;;;;;5041661;28;19923;-84
2022/12/15 18:38:50;;;;;;;;;;;;;;;;;;5062021;28;19920;-83
2022/12/15 18:41:15;;;;;;;;;;;;;;;;;;5069457;28;19980;-83
2022/12/15 18:43:44;;;;;;;;;;;;;;;;;;5055315;28;19917;-84
2022/12/15 18:46:17;;;;;;;;;;;;;;;;;;5076951;28;19897;-84
2022/12/15 18:48:43;;;;;;;;;;;;;;;;;;5075731;28;19912;-83
2022/12/15 18:51:09;;;;;;;;;;;;;;;;;;5074905;28;19980;-85
2022/12/15 18:53:34;;;;;;;;;;;;;;;;;;5064282;28;19928;-84
2022/12/15 18:56:00;;;;;;;;;;;;;;;;;;5025733;28;19901;-85
2022/12/15 18:58:26;;;;;;;;;;;;;;;;;;5251568;23;19925;-83
2022/12/15 19:00:52;;;;;;;;;;;;;;;;;;5056003;28;19985;-82
2022/12/15 19:03:17;;;;;;;;;;;;;;;;;;5062261;28;20435;-82
2022/12/15 19:05:43;;;;;;;;;;;;;;;;;;5043091;28;19956;-83
2022/12/15 19:08:12;;;;;;;;;;;;;;;;;;5056146;28;19920;-84
2022/12/15 19:10:40;;;;;;;;;;;;;;;;;;5040668;28;19935;-83
2022/12/15 19:13:06;;;;;;;;;;;;;;;;;;5038334;28;19925;-83
2022/12/15 19:15:32;;;;;;;;;;;;;;;;;;5054808;28;19972;-83
2022/12/15 19:23:31;;;;;;;;;;;;;;;;;;5056918;28;19913;-83
2022/12/15 19:25:57;;;;;;;;;;;;;;;;;;5038084;28;20202;-83
2022/12/15 19:28:23;;;;;;;;;;;;;;;;;;5054778;28;19903;-83
2022/12/15 19:30:49;;;;;;;;;;;;;;;;;;5055989;28;19913;-82
2022/12/15 19:33:14;;;;;;;;;;;;;;;;;;5054422;28;19921;-82
2022/12/15 19:35:40;;;;;;;;;;;;;;;;;;5053110;28;19913;-82
2022/12/15 19:38:05;;;;;;;;;;;;;;;;;;5034663;28;19948;-82
2022/12/15 19:40:31;;;;;;;;;;;;;;;;;;5052148;28;19913;-83
2022/12/15 19:42:57;;;;;;;;;;;;;;;;;;5054262;28;19913;-83
2022/12/15 19:45:22;;;;;;;;;;;;;;;;;;5055040;28;19913;-83
2022/12/15 19:47:48;;;;;;;;;;;;;;;;;;5032776;28;19913;-82
2022/12/15 19:50:13;;;;;;;;;;;;;;;;;;5030503;28;19929;-83
2022/12/15 19:52:39;;;;;;;;;;;;;;;;;;5017089;28;19910;-82
2022/12/15 19:55:05;;;;;;;;;;;;;;;;;;4993782;28;19949;-82
2022/12/15 19:57:30;;;;;;;;;;;;;;;;;;5015375;28;19909;-83
2022/12/15 19:59:56;;;;;;;;;;;;;;;;;;5025848;28;19920;-82
2022/12/15 20:02:21;;;;;;;;;;;;;;;;;;5049771;28;19963;-82
2022/12/15 20:04:47;;;;;;;;;;;;;;;;;;5047048;28;19936;-82
2022/12/15 20:07:12;;;;;;;;;;;;;;;;;;5030385;28;19920;-82
2022/12/15 20:09:37;;;;;;;;;;;;;;;;;;5022263;28;19937;-84
2022/12/15 20:12:03;;;;;;;;;;;;;;;;;;5050316;28;20448;-82
2022/12/15 20:14:29;;;;;;;;;;;;;;;;;;5049212;28;19913;-81
2022/12/15 20:16:54;;;;;;;;;;;;;;;;;;5016247;28;19914;-83
2022/12/15 20:19:20;;;;;;;;;;;;;;;;;;5015431;28;19921;-82
2022/12/15 20:21:45;;;;;;;;;;;;;;;;;;5001787;28;19914;-82
2022/12/15 20:24:11;;;;;;;;;;;;;;;;;;5049064;28;19913;-82
2022/12/15 20:26:36;;;;;;;;;;;;;;;;;;5069332;28;19985;-83
2022/12/15 20:29:02;;;;;;;;;;;;;;;;;;5050037;28;19913;-82
2022/12/15 20:31:27;;;;;;;;;;;;;;;;;;5010940;28;20399;-82
2022/12/15 20:33:53;;;;;;;;;;;;;;;;;;5014262;28;19978;-83
2022/12/15 20:36:18;;;;;;;;;;;;;;;;;;5014349;28;19914;-83
2022/12/15 20:38:43;;;;;;;;;;;;;;;;;;5017155;28;19917;-83
2022/12/15 20:41:09;;;;;;;;;;;;;;;;;;5014783;28;19918;-84
2022/12/15 20:43:35;;;;;;;;;;;;;;;;;;5040004;28;19935;-82
2022/12/15 20:46:00;;;;;;;;;;;;;;;;;;5053467;28;19910;-83
2022/12/15 20:48:26;;;;;;;;;;;;;;;;;;5023724;28;19948;-85
2022/12/15 20:50:52;;;;;;;;;;;;;;;;;;5267994;22;19936;-82
2022/12/15 20:53:17;;;;;;;;;;;;;;;;;;5032671;28;19917;-82
2022/12/15 20:55:43;;;;;;;;;;;;;;;;;;5044090;28;19920;-83
2022/12/15 20:58:09;;;;;;;;;;;;;;;;;;5071247;28;19897;-83
2022/12/15 21:00:34;;;;;;;;;;;;;;;;;;5057525;28;19925;-84
2022/12/15 21:03:00;;;;;;;;;;;;;;;;;;5057210;28;19901;-85
2022/12/15 21:05:30;;;;;;;;;;;;;;;;;;5056635;28;19904;-84
2022/12/15 21:08:04;;;;;;;;;;;;;;;;;;5040971;28;19917;-84
2022/12/15 21:10:30;;;;;;;;;;;;;;;;;;5037448;28;19909;-83
2022/12/15 21:12:56;;;;;;;;;;;;;;;;;;5053477;28;19909;-83
2022/12/15 21:15:22;;;;;;;;;;;;;;;;;;5036558;28;19937;-82
2022/12/15 21:17:48;;;;;;;;;;;;;;;;;;5037343;28;19948;-83
2022/12/15 21:20:13;;;;;;;;;;;;;;;;;;5057166;28;19901;-83
2022/12/15 21:22:39;;;;;;;;;;;;;;;;;;5050967;28;19952;-83
2022/12/15 21:25:05;;;;;;;;;;;;;;;;;;5048024;28;19921;-83
2022/12/15 21:27:31;;;;;;;;;;;;;;;;;;5056551;28;19940;-82